Latest Coastal Weather Observations for Cape Byron

IDN60701

Issued at 9:51 pm EDT Sunday 24 March 2019 (issued every 10 minutes, with the page automatically refreshed every 10 minutes)

About coastal observations | Map of coastal stations | Coastal observations for NSW | Marine services | Other Formats
Station Details ID: 058216 Name: CAPE BYRON AWS Lat: -28.64 Lon: 153.64 Height: 95.0 m
Data from the previous 72 hours. | See also: Recent months at Cape Byron
Date/Time
EDT
Wind Sea
Height
m
Swell Vis
km
Cloud Weather Temp
°C
Press
hPa
Rain since
9am
mm
Dir  Spd
kts
Gust
kts
Height
m
Period
s
Dir
24/09:30pm N 13 17 - - - - - - - 24.8 1012.9 0.0
24/09:00pm N 14 21 - - - - - - - 25.1 1012.7 0.0
24/08:30pm N 14 20 - - - - - - - 25.2 1012.3 0.0
24/08:00pm N 13 17 - - - - - - - 25.3 1012.3 0.0
24/07:30pm N 15 22 - - - - - - - 25.6 1012.2 0.0
24/07:00pm N 15 22 - - - - - - - 26.0 1011.9 0.0
24/06:30pm N 16 23 - - - - - - - 26.4 1011.8 0.0
24/06:00pm NNE 14 21 - - - - - - - 26.7 1011.8 0.0
24/05:30pm NNE 11 17 - - - - - - - 27.4 1011.8 0.0
24/05:00pm N 11 17 - - - - - - - 28.4 1011.8 0.0
24/04:30pm N 11 16 - - - - - - - 28.6 1011.8 0.0
24/04:00pm N 11 16 - - - - - - - 28.7 1011.9 0.0
24/03:30pm N 9 13 - - - - - - - 29.4 1012.1 0.0
24/03:00pm NNE 9 13 - - - - - - - 28.8 1012.5 0.0
24/02:30pm NNE 9 13 - - - - - - - 28.8 1012.9 0.0
24/02:00pm NNE 7 11 - - - - - - - 29.4 1013.4 0.0
24/01:30pm NE 9 11 - - - - - - - 29.6 1013.7 0.0
24/01:00pm NE 8 11 - - - - - - - 29.8 1014.0 0.0
24/12:30pm NE 7 9 - - - - - - - 29.3 1014.4 0.0
24/12:00pm NNE 7 9 - - - - - - - 28.8 1014.6 0.0
24/11:30am NNE 4 6 - - - - - - - 29.4 1015.0 0.0
24/11:00am NE 7 8 - - - - - - - 29.1 1015.2 0.0
24/10:30am E 6 7 - - - - - - - 27.7 1015.5 0.0
24/10:00am ENE 6 7 - - - - - - - 27.4 1015.6 0.0
24/09:30am NNW 4 7 - - - - - - - 26.4 1015.3 0.0
24/09:00am S 3 6 - - - - - - - 24.6 1015.4 0.0
24/08:30am SW 9 12 - - - - - - - 23.2 1015.5 0.0
24/08:00am SSW 11 15 - - - - - - - 22.6 1015.0 0.0
24/07:30am SW 11 19 - - - - - - - 22.9 1014.8 0.0
24/07:20am W 8 22 - - - - - - - 23.2 1014.8 0.0
24/07:00am NW 6 11 - - - - - - - 23.7 1013.8 0.0
24/06:30am NNW 10 15 - - - - - - - 23.9 1013.5 0.0
24/06:00am N 13 18 - - - - - - - 24.1 1013.2 0.0
24/05:30am N 13 18 - - - - - - - 24.3 1013.2 0.0
24/05:00am N 13 18 - - - - - - - 24.4 1013.2 0.0
24/04:30am N 12 17 - - - - - - - 24.5 1013.2 0.0
24/04:00am N 13 19 - - - - - - - 24.5 1012.8 0.0
24/03:30am N 12 16 - - - - - - - 24.6 1012.7 0.0
24/03:00am NNW 12 20 - - - - - - - 24.6 1012.8 0.0
24/02:30am N 13 19 - - - - - - - 24.7 1013.0 0.0
24/02:00am N 12 17 - - - - - - - 24.6 1013.4 0.0
24/01:30am N 12 17 - - - - - - - 24.7 1013.6 0.0
24/01:00am N 12 17 - - - - - - - 24.8 1013.7 0.0
24/12:30am N 13 18 - - - - - - - 24.9 1013.8 0.0
24/12:00am N 13 18 - - - - - - - 24.9 1013.8 0.0
 
Date/Time
EDT
Wind Sea
Height
m
Swell Vis
km
Cloud Weather Temp
°C
Press
hPa
Rain since
9am
mm
Dir  Spd
kts
Gust
kts
Height
m
Period
s
Dir
23/11:30pm N 12 16 - - - - - - - 25.1 1014.1 0.0
23/11:00pm N 12 17 - - - - - - - 25.1 1014.2 0.0
23/10:30pm N 14 20 - - - - - - - 25.2 1014.1 0.0
23/10:00pm N 16 22 - - - - - - - 25.3 1013.9 0.0
23/09:30pm N 15 21 - - - - - - - 25.4 1013.7 0.0
23/09:00pm N 13 21 - - - - - - - 25.5 1013.4 0.0
23/08:30pm NNE 15 20 - - - - - - - 25.6 1013.2 0.0
23/08:00pm N 12 18 - - - - - - - 25.5 1013.3 0.0
23/07:30pm N 13 18 - - - - - - - 25.7 1013.2 0.0
23/07:00pm N 14 19 - - - - - - - 25.9 1012.7 0.0
23/06:30pm NNE 11 16 - - - - - - - 26.2 1012.6 0.0
23/06:00pm NNE 13 19 - - - - - - - 26.3 1012.6 0.0
23/05:30pm NNE 14 21 - - - - - - - 26.7 1012.2 0.0
23/05:00pm NNE 12 18 - - - - - - - 27.1 1011.9 0.0
23/04:30pm NNE 12 18 - - - - - - - 27.3 1011.8 0.0
23/04:00pm NNE 12 17 - - - - - - - 27.6 1011.9 0.0
23/03:30pm NNE 13 17 - - - - - - - 27.7 1012.2 0.0
23/03:00pm NNE 13 17 - - - - - - - 28.1 1012.7 0.0
23/02:30pm NNE 11 18 - - - - - - - 27.8 1013.1 0.0
23/02:00pm NNE 11 16 - - - - - - - 28.2 1013.5 0.0
23/01:30pm NNE 9 14 - - - - - - - 27.8 1013.9 0.0
23/01:00pm NNE 9 14 - - - - - - - 28.2 1014.4 0.0
23/12:30pm NNE 9 13 - - - - - - - 28.0 1014.8 0.0
23/12:00pm NNE 8 13 - - - - - - - 27.8 1015.3 0.0
23/11:30am NNE 7 10 - - - - - - - 27.7 1015.6 0.0
23/11:00am N 7 9 - - - - - - - 27.4 1016.0 0.0
23/10:30am N 6 9 - - - - - - - 26.7 1016.2 0.0
23/10:00am NNW 5 9 - - - - - - - 26.0 1016.1 0.0
23/09:30am N 6 10 - - - - - - - 25.3 1015.9 0.0
23/09:00am N 5 8 - - - - - - - 24.6 1016.1 3.0
23/08:30am NNW 4 8 - - - - - - - 23.2 1015.9 3.0
23/08:00am NW 6 9 - - - - - - - 21.9 1015.8 3.0
23/07:30am NW 5 7 - - - - - - - 21.5 1015.8 3.0
23/07:00am NW 5 7 - - - - - - - 21.4 1015.7 3.0
23/06:30am N 5 7 - - - - - - - 22.2 1015.9 3.0
23/06:00am WSW 5 6 - - - - - - - 21.9 1016.0 3.0
23/05:30am SW 5 6 - - - - - - - 21.6 1016.0 3.0
23/05:00am SSE 6 7 - - - - - - - 21.7 1015.6 3.0
23/04:30am SW 8 9 - - - - - - - 21.1 1015.8 3.0
23/04:00am S 8 11 - - - - - - - 21.2 1016.1 3.0
23/03:30am SW 11 15 - - - - - - - 21.4 1015.9 3.0
23/03:00am SW 8 11 - - - - - - - 21.2 1015.7 3.0
23/02:30am WSW 13 17 - - - - - - - 21.5 1015.9 3.0
23/02:00am W 11 16 - - - - - - - 22.2 1016.0 3.0
23/01:30am WNW 9 14 - - - - - - - 23.0 1016.3 3.0
23/01:00am NW 4 6 - - - - - - - 23.9 1016.5 3.0
23/12:30am NNW 5 9 - - - - - - - 24.0 1016.3 3.0
23/12:00am NNW 7 11 - - - - - - - 24.0 1016.3 3.0
 
Date/Time
EDT
Wind Sea
Height
m
Swell Vis
km
Cloud Weather Temp
°C
Press
hPa
Rain since
9am
mm
Dir  Spd
kts
Gust
kts
Height
m
Period
s
Dir
22/11:30pm N 8 10 - - - - - - - 23.9 1016.4 3.0
22/11:00pm NNW 3 6 - - - - - - - 23.5 1016.7 3.0
22/10:30pm WNW 5 9 - - - - - - - 23.6 1016.7 3.0
22/10:00pm NNE 7 11 - - - - - - - 24.3 1016.6 2.8
22/09:30pm NE 9 13 - - - - - - - 24.0 1016.0 2.8
22/09:00pm NNE 8 13 - - - - - - Rain 24.2 1016.2 0.8
22/08:30pm ENE 10 14 - - - - - - - 24.7 1015.9 0.0
22/08:00pm ENE 12 17 - - - - - - - 24.7 1014.9 0.0
22/07:30pm ENE 13 15 - - - - - - - 24.9 1015.0 0.0
22/07:00pm NE 14 16 - - - - - - - 24.8 1014.3 0.0
22/06:30pm ENE 10 13 - - - - - - - 24.8 1014.5 0.0
22/06:00pm ENE 9 12 - - - - - - - 25.5 1014.1 0.0
22/05:30pm ENE 9 12 - - - - - - - 26.6 1014.1 0.0
22/05:00pm NE 10 13 - - - - - - - 26.5 1014.0 0.0
22/04:30pm NE 11 13 - - - - - - - 26.7 1014.3 0.0
22/04:00pm ENE 9 12 - - - - - - - 28.9 1014.6 0.0
22/03:30pm ENE 8 9 - - - - - - - 29.3 1014.9 0.0
22/03:00pm ENE 7 11 - - - - - - - 27.3 1015.2 0.0
22/02:30pm ENE 7 10 - - - - - - - 26.9 1015.7 0.0
22/02:00pm E 7 10 - - - - - - - 27.2 1016.1 0.0
22/01:30pm E 7 11 - - - - - - - 26.9 1016.1 0.0
22/01:00pm E 9 12 - - - - - - - 29.4 1016.7 0.0
22/12:30pm E 8 11 - - - - - - - 28.1 1017.2 0.0
22/12:00pm E 7 9 - - - - - - - 28.7 1017.5 0.0
22/11:30am SE 6 8 - - - - - - - 27.5 1017.6 0.0
22/11:00am SE 6 7 - - - - - - - 27.6 1017.8 0.0
22/10:30am SSE 4 6 - - - - - - - 25.7 1017.9 0.0
22/10:00am S 4 5 - - - - - - - 25.4 1017.6 0.0
22/09:30am SSW 5 7 - - - - - - - 24.8 1017.5 0.0
22/09:00am SW 5 6 - - - - - - - 23.9 1017.3 0.0
22/08:30am SSW 5 6 - - - - - - - 23.4 1017.1 0.0
22/08:00am SW 5 6 - - - - - - - 23.1 1016.9 0.0
22/07:30am SSW 5 6 - - - - - - - 23.0 1016.6 0.0
22/07:00am SSW 4 5 - - - - - - - 22.8 1016.2 0.0
22/06:30am SSW 5 6 - - - - - - - 22.6 1015.8 0.0
22/06:00am S 5 6 - - - - - - - 22.8 1015.7 0.0
22/05:30am S 6 7 - - - - - - - 22.7 1015.5 0.0
22/05:00am SSW 6 8 - - - - - - - 22.8 1015.3 0.0
22/04:30am SSW 6 8 - - - - - - - 22.6 1015.2 0.0
22/04:00am SSW 5 6 - - - - - - - 22.6 1015.3 0.0
22/03:30am SSW 4 5 - - - - - - - 23.0 1015.4 0.0
22/03:00am SSE 4 5 - - - - - - - 23.2 1015.5 0.0
22/02:30am CALM 0 4 - - - - - - - 23.3 1015.6 0.0
22/02:00am NE 1 4 - - - - - - - 23.3 1016.1 0.0
22/01:30am ESE 2 4 - - - - - - - 23.4 1016.4 0.0
22/01:00am ESE 3 5 - - - - - - - 23.5 1016.5 0.0
22/12:30am ENE 1 4 - - - - - - - 23.6 1016.7 0.0
22/12:00am ENE 4 5 - - - - - - - 23.7 1017.0 0.0
 
Date/Time
EDT
Wind Sea
Height
m
Swell Vis
km
Cloud Weather Temp
°C
Press
hPa
Rain since
9am
mm
Dir  Spd
kts
Gust
kts
Height
m
Period
s
Dir
21/11:30pm E 3 5 - - - - - - - 23.5 1016.8 0.0
21/11:00pm E 3 6 - - - - - - - 23.7 1016.6 0.0
21/10:30pm ESE 3 5 - - - - - - - 23.8 1016.7 0.0
21/10:00pm E 5 9 - - - - - - - 23.9 1016.6 0.0

Other formats

Comma delimited format used in spreadsheet applications
http://www.bom.gov.au/fwo/IDN60701/IDN60701.94599.axf

JavaScript Object Notation format (JSON) in row-major order
http://www.bom.gov.au/fwo/IDN60701/IDN60701.94599.json

Data quality

Most of these data are generated automatically and are frequently updated. Quality checks on data are not normally performed. It is possible for incorrect values to appear. Refer to information at About Latest Weather Observations and please check the disclaimer before using these data.